| Back to River Map | <<< Previous Forecast Point | | | Next Forecast Point >>> | Printer Version | Graph Version |  |
|
SALINAS RIVER - SOLEDAD (SDDC1)
| Latitude: 36.41º N | Longitude: 121.32º W | Elevation: 151 Feet | | Forecast Type: Unofficial Location |
| Location: Monterey County in California | Bulletin Group: Central Coast | River Group: Salinas/Pajaro |
| Issuance Time: | May 10 2026 at 7:31 AM PDT | Next Issuance: | May 11 2026 at 9:00 AM PDT
| |
| Action/Monitor: 16.0 Feet | Minor Flood: 18.0 Feet | Moderate Flood: N/A | Major Flood: N/A |
# Tabular Observed and Forecast Hydrograph Information
#
# Location: Salinas River - Soledad (SDDC1)
#
# File Generation Time: 05/10/2026 at 07:32 AM PDT
# Data Interval: 1 Hour
#
# Most Recent Date & Time of Maximum Observed: 05/10/2026 at 03:00 AM PDT
# Maximum Observed Stage: 9.84 Feet
# Maximum Observed Flow: 187 cfs
#
# Earliest Date & Time of Maximum Forecast: 05/10/2026 at 08:00 AM PDT
# Maximum Forecast Stage: 9.83 Feet
# Maximum Forecast Flow: 185 cfs
#
# OBSERVED
#
# Date & Time (Local) Stage (Feet) Flow (cfs) Trend Observed Status
# ---------------------------------------------------------------------------------
05/05/2026 07 AM PDT 9.63 136 Normal
05/05/2026 08 AM PDT 9.64 138 + Normal
05/05/2026 09 AM PDT 9.64 138 0 Normal
05/05/2026 10 AM PDT 9.65 140 + Normal
05/05/2026 11 AM PDT 9.65 140 0 Normal
05/05/2026 12 PM PDT 9.64 138 - Normal
05/05/2026 01 PM PDT 9.65 140 + Normal
05/05/2026 02 PM PDT 9.65 140 0 Normal
05/05/2026 03 PM PDT 9.65 140 0 Normal
05/05/2026 04 PM PDT 9.65 140 0 Normal
05/05/2026 05 PM PDT 9.65 140 0 Normal
05/05/2026 06 PM PDT 9.66 143 + Normal
05/05/2026 07 PM PDT 9.65 140 - Normal
05/05/2026 08 PM PDT 9.65 140 0 Normal
05/05/2026 09 PM PDT 9.65 140 0 Normal
05/05/2026 10 PM PDT 9.65 140 0 Normal
05/05/2026 11 PM PDT 9.64 138 - Normal
05/06/2026 12 AM PDT 9.64 138 0 Normal
05/06/2026 01 AM PDT 9.63 136 - Normal
05/06/2026 02 AM PDT 9.63 136 0 Normal
05/06/2026 03 AM PDT 9.64 138 + Normal
05/06/2026 04 AM PDT 9.64 138 0 Normal
05/06/2026 05 AM PDT 9.63 136 - Normal
05/06/2026 06 AM PDT 9.62 133 - Normal
05/06/2026 07 AM PDT 9.62 133 0 Normal
05/06/2026 08 AM PDT 9.63 136 + Normal
05/06/2026 09 AM PDT 9.64 138 + Normal
05/06/2026 10 AM PDT 9.64 138 0 Normal
05/06/2026 11 AM PDT 9.64 138 0 Normal
05/06/2026 12 PM PDT 9.64 138 0 Normal
05/06/2026 01 PM PDT 9.65 140 + Normal
05/06/2026 02 PM PDT 9.65 140 0 Normal
05/06/2026 03 PM PDT 9.65 140 0 Normal
05/06/2026 04 PM PDT 9.66 143 + Normal
05/06/2026 05 PM PDT 9.65 140 - Normal
05/06/2026 06 PM PDT 9.65 140 0 Normal
05/06/2026 07 PM PDT 9.65 140 0 Normal
05/06/2026 08 PM PDT 9.65 140 0 Normal
05/06/2026 09 PM PDT 9.66 143 + Normal
05/06/2026 10 PM PDT 9.65 140 - Normal
05/06/2026 11 PM PDT 9.65 140 0 Normal
05/07/2026 12 AM PDT 9.65 140 0 Normal
05/07/2026 01 AM PDT 9.65 140 0 Normal
05/07/2026 02 AM PDT 9.65 140 0 Normal
05/07/2026 03 AM PDT 9.66 143 + Normal
05/07/2026 04 AM PDT 9.65 140 - Normal
05/07/2026 05 AM PDT 9.66 143 + Normal
05/07/2026 06 AM PDT 9.66 143 0 Normal
05/07/2026 07 AM PDT 9.66 143 0 Normal
05/07/2026 08 AM PDT 9.66 143 0 Normal
05/07/2026 09 AM PDT 9.67 145 + Normal
05/07/2026 10 AM PDT 9.67 145 0 Normal
05/07/2026 11 AM PDT 9.68 147 + Normal
05/07/2026 12 PM PDT 9.68 147 0 Normal
05/07/2026 01 PM PDT 9.68 147 0 Normal
05/07/2026 02 PM PDT 9.69 150 + Normal
05/07/2026 03 PM PDT 9.69 150 0 Normal
05/07/2026 04 PM PDT 9.70 152 + Normal
05/07/2026 05 PM PDT 9.71 155 + Normal
05/07/2026 06 PM PDT 9.71 155 0 Normal
05/07/2026 07 PM PDT 9.70 152 - Normal
05/07/2026 08 PM PDT 9.70 152 0 Normal
05/07/2026 09 PM PDT 9.70 152 0 Normal
05/07/2026 10 PM PDT 9.70 152 0 Normal
05/07/2026 11 PM PDT 9.69 150 - Normal
05/08/2026 12 AM PDT 9.70 152 + Normal
05/08/2026 01 AM PDT 9.70 152 0 Normal
05/08/2026 02 AM PDT 9.71 155 + Normal
05/08/2026 03 AM PDT 9.71 155 0 Normal
05/08/2026 04 AM PDT 9.71 155 0 Normal
05/08/2026 05 AM PDT 9.71 155 0 Normal
05/08/2026 06 AM PDT 9.71 155 0 Normal
05/08/2026 07 AM PDT 9.71 155 0 Normal
05/08/2026 08 AM PDT 9.72 157 + Normal
05/08/2026 09 AM PDT 9.72 157 0 Normal
05/08/2026 10 AM PDT 9.72 157 0 Normal
05/08/2026 11 AM PDT 9.73 159 + Normal
05/08/2026 12 PM PDT 9.74 162 + Normal
05/08/2026 01 PM PDT 9.74 162 0 Normal
05/08/2026 02 PM PDT 9.75 164 + Normal
05/08/2026 03 PM PDT 9.75 164 0 Normal
05/08/2026 04 PM PDT 9.75 164 0 Normal
05/08/2026 05 PM PDT 9.75 164 0 Normal
05/08/2026 06 PM PDT 9.76 167 + Normal
05/08/2026 07 PM PDT 9.76 167 0 Normal
05/08/2026 08 PM PDT 9.76 167 0 Normal
05/08/2026 09 PM PDT 9.76 167 0 Normal
05/08/2026 10 PM PDT 9.77 169 + Normal
05/08/2026 11 PM PDT 9.78 172 + Normal
05/09/2026 12 AM PDT 9.78 172 0 Normal
05/09/2026 01 AM PDT 9.79 174 + Normal
05/09/2026 02 AM PDT 9.79 174 0 Normal
05/09/2026 03 AM PDT 9.79 174 0 Normal
05/09/2026 04 AM PDT 9.80 177 + Normal
05/09/2026 05 AM PDT 9.79 174 - Normal
05/09/2026 06 AM PDT 9.80 177 + Normal
05/09/2026 07 AM PDT 9.80 177 0 Normal
05/09/2026 08 AM PDT 9.79 174 - Normal
05/09/2026 09 AM PDT 9.81 179 + Normal
05/09/2026 10 AM PDT 9.81 179 0 Normal
05/09/2026 11 AM PDT 9.81 179 0 Normal
05/09/2026 12 PM PDT 9.81 179 0 Normal
05/09/2026 01 PM PDT 9.82 182 + Normal
05/09/2026 02 PM PDT 9.82 182 0 Normal
05/09/2026 03 PM PDT 9.83 185 + Normal
05/09/2026 04 PM PDT 9.83 185 0 Normal
05/09/2026 05 PM PDT 9.82 182 - Normal
05/09/2026 06 PM PDT 9.82 182 0 Normal
05/09/2026 07 PM PDT 9.83 185 + Normal
05/09/2026 08 PM PDT 9.82 182 - Normal
05/09/2026 09 PM PDT 9.82 182 0 Normal
05/09/2026 10 PM PDT 9.80 177 - Normal
05/09/2026 11 PM PDT 9.82 182 + Normal
05/10/2026 12 AM PDT 9.83 185 + Normal
05/10/2026 01 AM PDT 9.83 185 0 Normal
05/10/2026 02 AM PDT 9.84 187 + Normal
05/10/2026 03 AM PDT 9.84 187 0 Normal
05/10/2026 04 AM PDT 9.83 185 - Normal
05/10/2026 05 AM PDT 9.83 185 0 Normal
05/10/2026 06 AM PDT 9.83 185 0 Normal
05/10/2026 07 AM PDT 9.83 185 0 Normal
#
# FORECAST
#
# Date & Time (Local) Stage (Feet) Flow (cfs) Trend Forecast Status
# ---------------------------------------------------------------------------------
05/10/2026 08 AM PDT 9.83 185 Normal
05/10/2026 09 AM PDT 9.83 185 0 Normal
05/10/2026 10 AM PDT 9.83 185 0 Normal
05/10/2026 11 AM PDT 9.83 185 0 Normal
05/10/2026 12 PM PDT 9.83 185 0 Normal
05/10/2026 01 PM PDT 9.83 185 0 Normal
05/10/2026 02 PM PDT 9.83 185 0 Normal
05/10/2026 03 PM PDT 9.83 185 0 Normal
05/10/2026 04 PM PDT 9.83 185 0 Normal
05/10/2026 05 PM PDT 9.83 185 0 Normal
05/10/2026 06 PM PDT 9.83 185 0 Normal
05/10/2026 07 PM PDT 9.83 185 0 Normal
05/10/2026 08 PM PDT 9.83 185 0 Normal
05/10/2026 09 PM PDT 9.83 185 0 Normal
05/10/2026 10 PM PDT 9.83 185 0 Normal
05/10/2026 11 PM PDT 9.83 185 0 Normal
05/11/2026 12 AM PDT 9.83 185 0 Normal
05/11/2026 01 AM PDT 9.83 185 0 Normal
05/11/2026 02 AM PDT 9.83 185 0 Normal
05/11/2026 03 AM PDT 9.83 185 0 Normal
05/11/2026 04 AM PDT 9.83 185 0 Normal
05/11/2026 05 AM PDT 9.83 185 0 Normal
05/11/2026 06 AM PDT 9.83 185 0 Normal
05/11/2026 07 AM PDT 9.83 185 0 Normal
05/11/2026 08 AM PDT 9.83 185 0 Normal
05/11/2026 09 AM PDT 9.83 185 0 Normal
05/11/2026 10 AM PDT 9.83 185 0 Normal
05/11/2026 11 AM PDT 9.83 185 0 Normal
05/11/2026 12 PM PDT 9.83 185 0 Normal
05/11/2026 01 PM PDT 9.83 185 0 Normal
05/11/2026 02 PM PDT 9.83 185 0 Normal
05/11/2026 03 PM PDT 9.83 185 0 Normal
05/11/2026 04 PM PDT 9.83 185 0 Normal
05/11/2026 05 PM PDT 9.83 185 0 Normal
05/11/2026 06 PM PDT 9.83 185 0 Normal
05/11/2026 07 PM PDT 9.83 185 0 Normal
05/11/2026 08 PM PDT 9.83 185 0 Normal
05/11/2026 09 PM PDT 9.83 185 0 Normal
05/11/2026 10 PM PDT 9.83 185 0 Normal
05/11/2026 11 PM PDT 9.83 185 0 Normal
05/12/2026 12 AM PDT 9.83 185 0 Normal
05/12/2026 01 AM PDT 9.83 185 0 Normal
05/12/2026 02 AM PDT 9.83 185 0 Normal
05/12/2026 03 AM PDT 9.83 185 0 Normal
05/12/2026 04 AM PDT 9.83 185 0 Normal
05/12/2026 05 AM PDT 9.83 185 0 Normal
05/12/2026 06 AM PDT 9.83 185 0 Normal
05/12/2026 07 AM PDT 9.83 185 0 Normal
05/12/2026 08 AM PDT 9.83 185 0 Normal
05/12/2026 09 AM PDT 9.83 185 0 Normal
05/12/2026 10 AM PDT 9.83 185 0 Normal
05/12/2026 11 AM PDT 9.83 185 0 Normal
05/12/2026 12 PM PDT 9.83 185 0 Normal
05/12/2026 01 PM PDT 9.83 185 0 Normal
05/12/2026 02 PM PDT 9.83 185 0 Normal
05/12/2026 03 PM PDT 9.83 185 0 Normal
05/12/2026 04 PM PDT 9.82 182 - Normal
05/12/2026 05 PM PDT 9.82 182 0 Normal
05/12/2026 06 PM PDT 9.82 182 0 Normal
05/12/2026 07 PM PDT 9.82 182 0 Normal
05/12/2026 08 PM PDT 9.82 182 0 Normal
05/12/2026 09 PM PDT 9.82 182 0 Normal
05/12/2026 10 PM PDT 9.82 182 0 Normal
05/12/2026 11 PM PDT 9.82 182 0 Normal
05/13/2026 12 AM PDT 9.82 182 0 Normal
05/13/2026 01 AM PDT 9.82 182 0 Normal
05/13/2026 02 AM PDT 9.82 182 0 Normal
05/13/2026 03 AM PDT 9.82 182 0 Normal
05/13/2026 04 AM PDT 9.82 182 0 Normal
05/13/2026 05 AM PDT 9.82 182 0 Normal
05/13/2026 06 AM PDT 9.82 182 0 Normal
05/13/2026 07 AM PDT 9.82 182 0 Normal
05/13/2026 08 AM PDT 9.82 182 0 Normal
05/13/2026 09 AM PDT 9.82 182 0 Normal
05/13/2026 10 AM PDT 9.82 182 0 Normal
05/13/2026 11 AM PDT 9.82 182 0 Normal
05/13/2026 12 PM PDT 9.82 182 0 Normal
05/13/2026 01 PM PDT 9.82 182 0 Normal
05/13/2026 02 PM PDT 9.82 182 0 Normal
05/13/2026 03 PM PDT 9.82 182 0 Normal
05/13/2026 04 PM PDT 9.82 182 0 Normal
05/13/2026 05 PM PDT 9.82 182 0 Normal
05/13/2026 06 PM PDT 9.82 182 0 Normal
05/13/2026 07 PM PDT 9.82 182 0 Normal
05/13/2026 08 PM PDT 9.82 182 0 Normal
05/13/2026 09 PM PDT 9.82 182 0 Normal
05/13/2026 10 PM PDT 9.82 182 0 Normal
05/13/2026 11 PM PDT 9.82 182 0 Normal
05/14/2026 12 AM PDT 9.82 182 0 Normal
05/14/2026 01 AM PDT 9.82 182 0 Normal
05/14/2026 02 AM PDT 9.82 182 0 Normal
05/14/2026 03 AM PDT 9.82 182 0 Normal
05/14/2026 04 AM PDT 9.82 182 0 Normal
05/14/2026 05 AM PDT 9.82 182 0 Normal
05/14/2026 06 AM PDT 9.82 182 0 Normal
05/14/2026 07 AM PDT 9.82 182 0 Normal
05/14/2026 08 AM PDT 9.82 182 0 Normal
05/14/2026 09 AM PDT 9.82 182 0 Normal
05/14/2026 10 AM PDT 9.82 182 0 Normal
05/14/2026 11 AM PDT 9.82 182 0 Normal
05/14/2026 12 PM PDT 9.82 182 0 Normal
05/14/2026 01 PM PDT 9.82 182 0 Normal
05/14/2026 02 PM PDT 9.82 182 0 Normal
05/14/2026 03 PM PDT 9.82 182 0 Normal
05/14/2026 04 PM PDT 9.82 182 0 Normal
05/14/2026 05 PM PDT 9.82 182 0 Normal
05/14/2026 06 PM PDT 9.82 182 0 Normal
05/14/2026 07 PM PDT 9.82 182 0 Normal
05/14/2026 08 PM PDT 9.82 182 0 Normal
05/14/2026 09 PM PDT 9.82 182 0 Normal
05/14/2026 10 PM PDT 9.82 182 0 Normal
05/14/2026 11 PM PDT 9.82 182 0 Normal
05/15/2026 12 AM PDT 9.82 182 0 Normal
05/15/2026 01 AM PDT 9.82 182 0 Normal
05/15/2026 02 AM PDT 9.82 182 0 Normal
05/15/2026 03 AM PDT 9.82 182 0 Normal
05/15/2026 04 AM PDT 9.82 182 0 Normal
05/15/2026 05 AM PDT 9.82 182 0 Normal
#
# NOTE 1: Stages are rounded to the nearest hundredth (.01) of a foot.
# NOTE 2: Flows are rounded to the nearest (1) cfs.
# NOTE 3: Trends are determined using hourly change in unrounded stage and flow.
# NOTE 4: Maximum Values are determined using unrounded stage and flow.
|